createdAt,value
2023-05-21T00:02:39.982Z,13.29
2023-05-21T00:07:42.844Z,13.20
2023-05-21T00:12:45.480Z,13.08
2023-05-21T00:17:48.203Z,13.00
2023-05-21T00:22:50.941Z,12.87
2023-05-21T00:27:54.815Z,12.83
2023-05-21T00:32:58.766Z,12.83
2023-05-21T00:38:01.929Z,12.80
2023-05-21T00:43:04.582Z,12.78
2023-05-21T00:48:08.380Z,12.76
2023-05-21T00:53:11.451Z,12.76
2023-05-21T00:58:14.217Z,12.75
2023-05-21T01:03:17.170Z,12.73
2023-05-21T01:08:21.726Z,12.74
2023-05-21T01:13:26.185Z,12.78
2023-05-21T01:18:29.839Z,12.85
2023-05-21T01:23:33.431Z,12.90
2023-05-21T01:28:36.768Z,12.92
2023-05-21T01:33:47.404Z,12.93
2023-05-21T01:39:02.105Z,12.90
2023-05-21T01:44:08.765Z,12.81
2023-05-21T01:49:11.639Z,12.72
2023-05-21T01:54:14.523Z,12.69
2023-05-21T01:59:17.303Z,12.67
2023-05-21T02:04:19.937Z,12.68
2023-05-21T02:09:22.688Z,12.75
2023-05-21T02:14:25.395Z,12.77
2023-05-21T02:19:28.017Z,12.81
2023-05-21T02:24:31.329Z,12.84
2023-05-21T02:29:33.932Z,12.88
2023-05-21T02:34:37.308Z,12.89
2023-05-21T02:39:39.956Z,12.93
2023-05-21T02:44:42.501Z,12.99
2023-05-21T02:49:45.617Z,13.07
2023-05-21T02:54:48.260Z,13.14
2023-05-21T02:59:51.264Z,13.21
2023-05-21T03:04:54.162Z,13.33
2023-05-21T03:09:56.856Z,13.50
2023-05-21T03:14:59.742Z,13.64
2023-05-21T03:20:05.124Z,13.75
2023-05-21T03:25:09.220Z,13.92
2023-05-21T03:30:12.348Z,14.11
2023-05-21T03:35:15.152Z,14.32
2023-05-21T03:40:17.759Z,14.43
2023-05-21T03:45:20.436Z,14.45
2023-05-21T03:50:23.085Z,14.42
2023-05-21T03:55:25.865Z,14.37
2023-05-21T04:00:28.499Z,14.37
2023-05-21T04:05:31.499Z,14.37
2023-05-21T04:10:34.674Z,14.38
2023-05-21T04:15:38.900Z,14.49
2023-05-21T04:20:41.993Z,14.64
2023-05-21T04:25:44.606Z,14.80
2023-05-21T04:30:47.686Z,14.96
2023-05-21T04:35:51.765Z,15.16
2023-05-21T04:40:55.649Z,15.38
2023-05-21T04:45:58.209Z,15.58
2023-05-21T04:51:00.804Z,15.79
2023-05-21T04:56:03.974Z,15.95
2023-05-21T05:01:08.966Z,16.09
2023-05-21T05:06:11.924Z,16.24
2023-05-21T05:11:14.690Z,16.40
2023-05-21T05:16:19.348Z,16.54
2023-05-21T05:21:23.366Z,16.66
2023-05-21T05:26:26.424Z,16.82
2023-05-21T05:31:29.219Z,16.98
2023-05-21T05:36:32.244Z,17.13
2023-05-21T05:41:34.895Z,17.32
2023-05-21T05:46:37.723Z,17.51
2023-05-21T05:51:41.039Z,17.70
2023-05-21T05:56:43.653Z,17.87
2023-05-21T06:01:46.384Z,18.06
2023-05-21T06:06:49.003Z,18.22
2023-05-21T06:11:51.876Z,18.36
2023-05-21T06:16:54.469Z,18.55
2023-05-21T06:21:57.121Z,18.78
2023-05-21T06:26:59.991Z,19.02
2023-05-21T06:32:03.524Z,19.17
2023-05-21T06:37:06.142Z,19.28
2023-05-21T06:42:08.783Z,19.48
2023-05-21T06:47:11.484Z,19.76
2023-05-21T06:52:14.101Z,20.05
2023-05-21T06:57:16.684Z,20.35
2023-05-21T07:02:19.427Z,20.57
2023-05-21T07:07:22.240Z,20.75
2023-05-21T07:12:24.961Z,21.00
2023-05-21T07:17:27.598Z,21.31
2023-05-21T07:22:30.279Z,21.60
2023-05-21T07:27:32.812Z,21.80
2023-05-21T07:32:35.547Z,22.02
2023-05-21T07:37:38.564Z,22.22
2023-05-21T07:42:42.215Z,22.39
2023-05-21T07:47:46.567Z,22.56
2023-05-21T07:52:49.309Z,22.71
2023-05-21T07:57:52.506Z,22.91
2023-05-21T08:02:55.237Z,23.12
2023-05-21T08:07:57.962Z,23.21
2023-05-21T08:13:00.764Z,23.27
2023-05-21T08:18:04.332Z,23.50
2023-05-21T08:23:07.061Z,23.75
2023-05-21T08:28:09.658Z,23.96
2023-05-21T08:33:12.902Z,24.18
2023-05-21T08:38:17.042Z,24.44
2023-05-21T08:43:19.950Z,24.68
2023-05-21T08:48:24.356Z,24.81
2023-05-21T08:53:29.665Z,24.98
2023-05-21T08:58:33.691Z,25.15
2023-05-21T09:03:43.224Z,25.26
2023-05-21T09:08:54.136Z,25.37
2023-05-21T09:14:00.068Z,25.50
2023-05-21T09:19:04.617Z,25.54
2023-05-21T09:24:10.586Z,25.64
2023-05-21T09:29:13.647Z,25.84
2023-05-21T09:34:16.429Z,26.09
2023-05-21T09:39:31.677Z,26.29
2023-05-21T09:44:35.050Z,26.37
2023-05-21T09:49:37.758Z,26.40
2023-05-21T09:54:40.677Z,26.58
2023-05-21T09:59:43.340Z,26.76
2023-05-21T10:04:49.459Z,26.83
2023-05-21T10:09:58.209Z,26.86
2023-05-21T10:15:04.161Z,26.88
2023-05-21T10:20:10.667Z,27.08
2023-05-21T10:25:14.191Z,27.21
2023-05-21T10:30:18.168Z,26.96
2023-05-21T10:35:21.007Z,26.79
2023-05-21T10:40:23.615Z,26.94
2023-05-21T10:45:53.473Z,27.17
2023-05-21T10:51:26.635Z,27.41
2023-05-21T10:56:35.467Z,27.56
2023-05-21T11:01:40.483Z,27.73
2023-05-21T11:06:49.527Z,27.84
2023-05-21T11:11:54.062Z,27.93
2023-05-21T11:16:57.111Z,27.99
2023-05-21T11:21:59.857Z,28.06
2023-05-21T11:27:04.373Z,27.76
2023-05-21T11:32:09.259Z,27.74
2023-05-21T11:37:23.321Z,27.96
2023-05-21T11:42:39.010Z,28.13
2023-05-21T11:47:41.838Z,28.28
2023-05-21T11:52:45.221Z,28.18
2023-05-21T11:57:48.697Z,28.23
2023-05-21T12:02:52.657Z,28.23
2023-05-21T12:07:56.716Z,28.12
2023-05-21T12:12:59.459Z,28.18
2023-05-21T12:18:02.905Z,28.31
2023-05-21T12:23:05.878Z,28.39
2023-05-21T12:28:08.790Z,28.53
2023-05-21T12:33:12.138Z,28.45
2023-05-21T12:38:14.802Z,28.53
2023-05-21T12:43:17.420Z,28.61
2023-05-21T12:48:19.994Z,28.66
2023-05-21T12:53:22.590Z,28.69
2023-05-21T12:58:25.783Z,29.02
2023-05-21T13:03:28.460Z,29.19
2023-05-21T13:08:31.166Z,29.27
2023-05-21T13:13:33.778Z,29.35
2023-05-21T13:18:36.536Z,29.81
2023-05-21T13:23:39.145Z,30.33
2023-05-21T13:28:42.807Z,31.12
2023-05-21T13:33:45.626Z,31.76
2023-05-21T13:38:48.241Z,32.18
2023-05-21T13:43:50.842Z,32.38
2023-05-21T13:48:53.486Z,32.75
2023-05-21T13:53:56.860Z,33.22
2023-05-21T13:59:01.533Z,33.59
2023-05-21T14:04:05.537Z,33.88
2023-05-21T14:09:08.707Z,34.30
2023-05-21T14:14:14.064Z,34.96
2023-05-21T14:19:16.941Z,35.44
2023-05-21T14:24:19.823Z,35.91
2023-05-21T14:29:22.514Z,36.17
2023-05-21T14:34:25.228Z,36.61
2023-05-21T14:39:27.810Z,36.99
2023-05-21T14:44:30.830Z,37.38
2023-05-21T14:49:33.505Z,37.82
2023-05-21T14:54:37.452Z,38.36
2023-05-21T14:59:40.054Z,38.56
2023-05-21T15:04:42.640Z,38.58
2023-05-21T15:09:45.293Z,38.89
2023-05-21T15:14:47.893Z,39.06
2023-05-21T15:19:51.148Z,39.34
2023-05-21T15:24:53.773Z,39.61
2023-05-21T15:29:56.429Z,39.71
2023-05-21T15:34:59.168Z,39.81
2023-05-21T15:40:02.128Z,39.68
2023-05-21T15:45:05.297Z,40.03
2023-05-21T15:50:09.545Z,40.60
2023-05-21T15:55:13.858Z,40.87
2023-05-21T16:00:16.537Z,40.67
2023-05-21T16:05:19.490Z,40.67
2023-05-21T16:10:22.725Z,40.66
2023-05-21T16:15:25.494Z,40.58
2023-05-21T16:20:30.118Z,39.31
2023-05-21T16:25:34.283Z,37.38
2023-05-21T16:30:36.964Z,35.61
2023-05-21T16:35:39.595Z,34.07
2023-05-21T16:40:42.247Z,32.64
2023-05-21T16:45:46.477Z,31.49
2023-05-21T16:50:49.135Z,30.74
2023-05-21T16:55:51.758Z,30.27
2023-05-21T17:00:54.386Z,30.22
2023-05-21T17:05:57.097Z,30.47
2023-05-21T17:10:59.728Z,29.87
2023-05-21T17:16:02.333Z,28.93
2023-05-21T17:21:05.076Z,27.95
2023-05-21T17:26:09.505Z,27.04
2023-05-21T17:31:12.133Z,26.33
2023-05-21T17:36:14.763Z,25.75
2023-05-21T17:41:19.004Z,25.37
2023-05-21T17:46:21.571Z,25.05
2023-05-21T17:51:24.951Z,24.71
2023-05-21T17:56:27.650Z,24.33
2023-05-21T18:01:30.375Z,24.01
2023-05-21T18:06:32.992Z,23.66
2023-05-21T18:11:35.595Z,23.28
2023-05-21T18:16:38.283Z,22.92
2023-05-21T18:21:40.949Z,22.52
2023-05-21T18:26:43.695Z,22.08
2023-05-21T18:31:46.471Z,21.64
2023-05-21T18:36:49.060Z,21.22
2023-05-21T18:42:01.602Z,20.79
2023-05-21T18:47:08.268Z,20.37
2023-05-21T18:52:10.890Z,19.98
2023-05-21T18:57:13.648Z,19.61
2023-05-21T19:02:16.470Z,19.27
2023-05-21T19:07:19.466Z,18.95
2023-05-21T19:12:23.161Z,18.65
2023-05-21T19:17:25.863Z,18.35
2023-05-21T19:22:28.935Z,18.07
2023-05-21T19:27:31.796Z,17.80
2023-05-21T19:32:34.808Z,17.54
2023-05-21T19:37:37.397Z,17.29
2023-05-21T19:42:40.059Z,17.06
2023-05-21T19:47:43.297Z,16.83
2023-05-21T19:52:46.379Z,16.61
2023-05-21T19:57:49.240Z,16.42
2023-05-21T20:02:53.004Z,16.21
2023-05-21T20:07:56.037Z,15.99
2023-05-21T20:12:58.723Z,15.79
2023-05-21T20:18:01.482Z,15.62
2023-05-21T20:23:04.158Z,15.45
2023-05-21T20:28:08.281Z,15.30
2023-05-21T20:33:11.057Z,15.15
2023-05-21T20:38:15.972Z,14.98
2023-05-21T20:43:19.971Z,14.80
2023-05-21T20:48:24.995Z,14.64
2023-05-21T20:53:27.866Z,14.46
2023-05-21T20:58:31.539Z,14.30
2023-05-21T21:03:34.758Z,14.13
2023-05-21T21:08:40.287Z,13.96
2023-05-21T21:13:43.054Z,13.78
2023-05-21T21:18:47.018Z,13.62
2023-05-21T21:23:49.877Z,13.49
2023-05-21T21:28:52.876Z,13.40
2023-05-21T21:33:55.483Z,13.36
2023-05-21T21:38:58.162Z,13.32
2023-05-21T21:44:00.741Z,13.29
2023-05-21T21:49:03.424Z,13.23
2023-05-21T21:54:06.319Z,13.13
2023-05-21T21:59:08.906Z,13.03
2023-05-21T22:04:11.933Z,12.91
2023-05-21T22:09:14.858Z,12.78
2023-05-21T22:14:18.321Z,12.64
2023-05-21T22:19:22.031Z,12.51
2023-05-21T22:29:33.268Z,12.26
2023-05-21T22:34:35.892Z,12.14
2023-05-21T22:39:38.468Z,12.05
2023-05-21T22:44:41.019Z,12.01
2023-05-21T22:49:43.590Z,11.98
2023-05-21T22:54:46.187Z,11.95
2023-05-21T22:59:48.778Z,11.90
2023-05-21T23:04:51.368Z,11.85
2023-05-21T23:09:54.046Z,11.81
2023-05-21T23:14:56.728Z,11.72
2023-05-21T23:19:59.397Z,11.63
2023-05-21T23:25:02.593Z,11.53
2023-05-21T23:30:06.029Z,11.43
2023-05-21T23:35:10.005Z,11.34
2023-05-21T23:40:12.855Z,11.26
2023-05-21T23:45:17.193Z,11.22
2023-05-21T23:50:19.845Z,11.22
2023-05-21T23:55:22.575Z,11.21
